Time;durP1;ratioP1;P1;durP2;ratioP2;P2;SDS_P1;SDS_P2;PMS_P1;PMS_P2;Temp;Humidity;BMP_temperature;BMP_pressure;BME280_temperature;BME280_humidity;BME280_pressure;Samples;Min_cycle;Max_cycle;Signal;HPM_P1;HPM_P2
2023/06/07 00:01:29;;;;;;;5.33;4.93;;;18.70;78.40;;;;;;10351760;28;20282;-85
2023/06/07 00:06:32;;;;;;;4.80;4.50;;;18.70;78.00;;;;;;10318266;28;20223;-86
2023/06/07 00:11:34;;;;;;;5.23;4.63;;;18.60;77.60;;;;;;10347568;28;20683;-86
2023/06/07 00:16:38;;;;;;;5.43;5.03;;;18.60;77.70;;;;;;10317277;28;20215;-86
2023/06/07 00:21:40;;;;;;;4.60;4.30;;;18.60;78.10;;;;;;10352103;28;20236;-86
2023/06/07 00:26:42;;;;;;;4.50;4.20;;;18.60;78.70;;;;;;10343699;28;20219;-86
2023/06/07 00:31:45;;;;;;;5.00;4.60;;;18.50;78.80;;;;;;10340014;28;20227;-86
2023/06/07 00:36:48;;;;;;;5.30;4.80;;;18.40;78.80;;;;;;10333317;28;20231;-85
2023/06/07 00:41:50;;;;;;;5.63;5.00;;;18.40;79.60;;;;;;10364767;28;20657;-86
2023/06/07 00:46:54;;;;;;;4.90;4.60;;;18.40;79.10;;;;;;10333134;28;20573;-86
2023/06/07 00:51:57;;;;;;;5.50;5.10;;;18.40;79.60;;;;;;10351539;28;20227;-86
2023/06/07 00:56:59;;;;;;;5.43;4.90;;;18.40;79.60;;;;;;10335954;28;20227;-86
2023/06/07 01:02:02;;;;;;;5.77;5.37;;;18.30;79.00;;;;;;10342695;28;20231;-86
2023/06/07 01:07:07;;;;;;;6.00;5.40;;;18.30;80.00;;;;;;10294151;28;20224;-86
2023/06/07 01:12:16;;;;;;;5.50;5.10;;;18.20;80.40;;;;;;10317434;28;20220;-85
2023/06/07 01:17:24;;;;;;;6.00;5.60;;;18.10;80.90;;;;;;10273306;28;20232;-84
2023/06/07 01:22:28;;;;;;;6.07;5.67;;;18.00;81.60;;;;;;10349281;28;20214;-85
2023/06/07 01:27:33;;;;;;;6.70;5.63;;;18.00;81.20;;;;;;10311783;28;20311;-86
2023/06/07 01:32:35;;;;;;;6.57;6.07;;;18.00;81.60;;;;;;10330905;28;20387;-85
2023/06/07 01:37:38;;;;;;;6.10;5.57;;;17.90;81.40;;;;;;10369228;28;20728;-85
2023/06/07 01:42:42;;;;;;;7.90;6.10;;;17.90;81.50;;;;;;10369431;28;20191;-86
2023/06/07 01:47:45;;;;;;;6.87;6.23;;;17.80;81.50;;;;;;10337693;28;20219;-85
2023/06/07 01:52:47;;;;;;;6.23;5.83;;;17.70;82.10;;;;;;10366712;28;20227;-86
2023/06/07 01:57:59;;;;;;;5.60;5.20;;;17.70;83.20;;;;;;10295978;28;20253;-86
2023/06/07 02:03:11;;;;;;;6.10;5.60;;;17.70;83.40;;;;;;10304434;28;20521;-84
2023/06/07 02:08:18;;;;;;;6.00;5.60;;;17.60;82.60;;;;;;10349843;28;20593;-85
2023/06/07 02:13:22;;;;;;;5.90;5.60;;;17.60;82.80;;;;;;10325773;28;20226;-86
2023/06/07 02:18:25;;;;;;;6.47;6.07;;;17.60;83.10;;;;;;10302263;28;20224;-86
2023/06/07 02:23:29;;;;;;;5.90;5.50;;;17.60;83.70;;;;;;10362192;28;20547;-85
2023/06/07 02:28:32;;;;;;;6.17;5.67;;;17.50;83.40;;;;;;10318383;28;20230;-85
2023/06/07 02:33:36;;;;;;;6.50;6.00;;;17.40;83.90;;;;;;10347192;28;20572;-85
2023/06/07 02:38:38;;;;;;;6.83;6.13;;;17.40;83.30;;;;;;10333504;28;20290;-86
2023/06/07 02:43:42;;;;;;;6.37;5.80;;;17.40;83.50;;;;;;10329528;28;20211;-86
2023/06/07 02:48:44;;;;;;;5.90;5.50;;;17.30;83.70;;;;;;10369924;28;20773;-86
2023/06/07 02:53:49;;;;;;;7.20;6.20;;;17.20;83.90;;;;;;10357562;28;20223;-86
2023/06/07 02:58:56;;;;;;;6.13;5.73;;;17.20;84.40;;;;;;10315850;28;20220;-85
2023/06/07 03:04:00;;;;;;;6.57;5.73;;;17.10;84.50;;;;;;10355331;28;20202;-86
2023/06/07 03:09:02;;;;;;;6.20;5.80;;;17.10;85.20;;;;;;10356774;28;20227;-86
2023/06/07 03:14:10;;;;;;;6.60;6.10;;;17.10;84.90;;;;;;10325593;28;20229;-86
2023/06/07 03:19:17;;;;;;;6.27;5.77;;;17.10;85.20;;;;;;10276195;28;20239;-86
2023/06/07 03:24:20;;;;;;;6.73;6.23;;;17.10;85.20;;;;;;10335880;28;20215;-86
2023/06/07 03:29:24;;;;;;;6.00;5.60;;;17.10;85.30;;;;;;10279610;28;20230;-86
2023/06/07 03:34:29;;;;;;;7.17;6.00;;;17.10;85.20;;;;;;10321880;28;20653;-86
2023/06/07 03:39:34;;;;;;;6.27;5.87;;;17.20;85.60;;;;;;10276003;28;20287;-86
2023/06/07 03:44:38;;;;;;;7.40;6.60;;;17.10;84.60;;;;;;10369805;28;20200;-86
2023/06/07 03:49:40;;;;;;;7.13;6.43;;;17.10;85.30;;;;;;10376182;28;20243;-85
2023/06/07 03:54:42;;;;;;;6.70;6.20;;;17.00;85.40;;;;;;10318563;28;20230;-85
2023/06/07 03:59:46;;;;;;;6.03;5.43;;;17.00;85.90;;;;;;10337736;28;20771;-86
2023/06/07 04:04:49;;;;;;;6.50;6.10;;;17.00;86.10;;;;;;10352600;28;20200;-86
2023/06/07 04:09:52;;;;;;;7.27;6.77;;;17.00;86.10;;;;;;10328875;28;20220;-85
2023/06/07 04:14:55;;;;;;;6.53;6.10;;;17.10;86.30;;;;;;10295875;28;20231;-86
2023/06/07 04:19:58;;;;;;;7.43;6.87;;;17.10;85.80;;;;;;10366856;28;20230;-86
2023/06/07 04:25:01;;;;;;;7.20;6.70;;;17.10;85.80;;;;;;10313454;28;20219;-85
2023/06/07 04:30:05;;;;;;;7.00;6.50;;;17.10;86.70;;;;;;10351088;28;20235;-85
2023/06/07 04:35:14;;;;;;;6.83;6.23;;;17.20;86.50;;;;;;10345361;28;20670;-86
2023/06/07 04:40:18;;;;;;;6.93;6.43;;;17.20;85.90;;;;;;10351357;28;20266;-84
2023/06/07 04:45:28;;;;;;;7.20;6.60;;;17.20;86.70;;;;;;10346271;28;20200;-85
2023/06/07 04:50:31;;;;;;;7.43;6.73;;;17.20;86.70;;;;;;10334663;28;20656;-86
2023/06/07 04:55:36;;;;;;;10.30;5.90;;;17.30;87.00;;;;;;10323354;28;20250;-86
2023/06/07 05:00:42;;;;;;;6.53;6.13;;;17.40;87.00;;;;;;10351634;28;20228;-85
2023/06/07 05:05:49;;;;;;;7.30;6.70;;;17.40;87.20;;;;;;10341756;28;20207;-85
2023/06/07 05:10:52;;;;;;;7.80;7.20;;;17.50;87.80;;;;;;10352254;28;20204;-82
2023/06/07 05:15:56;;;;;;;7.53;6.93;;;17.60;87.00;;;;;;10357070;28;20254;-85
2023/06/07 05:21:00;;;;;;;8.40;7.63;;;17.70;86.80;;;;;;10325775;28;20222;-85
2023/06/07 05:26:04;;;;;;;9.20;8.30;;;17.80;86.70;;;;;;10323670;28;20235;-85
2023/06/07 05:31:11;;;;;;;8.43;7.70;;;17.90;85.10;;;;;;10314924;28;20219;-85
2023/06/07 05:36:14;;;;;;;10.37;9.13;;;18.00;86.00;;;;;;10322317;28;20306;-85
2023/06/07 05:41:18;;;;;;;7.83;7.23;;;18.20;85.00;;;;;;10353928;28;20881;-85
2023/06/07 05:46:22;;;;;;;7.50;6.90;;;18.20;85.60;;;;;;10338784;28;20750;-85
2023/06/07 05:51:24;;;;;;;8.60;7.90;;;18.30;85.70;;;;;;10356102;28;20223;-85
2023/06/07 05:56:27;;;;;;;8.37;7.67;;;18.40;85.80;;;;;;10347680;28;20591;-85
2023/06/07 06:01:32;;;;;;;8.67;7.97;;;18.50;84.10;;;;;;10365079;28;20414;-85
2023/06/07 06:06:36;;;;;;;9.47;8.60;;;18.50;85.40;;;;;;10352741;28;20234;-85
2023/06/07 06:11:38;;;;;;;10.23;9.33;;;18.60;84.80;;;;;;10346184;28;20227;-85
2023/06/07 06:16:41;;;;;;;8.77;8.13;;;18.70;84.30;;;;;;10318657;28;20227;-85
2023/06/07 06:21:43;;;;;;;9.17;8.30;;;18.80;84.70;;;;;;10351286;28;20564;-86
2023/06/07 06:26:45;;;;;;;9.17;8.47;;;18.80;84.60;;;;;;10348668;28;20219;-86
2023/06/07 06:31:49;;;;;;;9.50;8.70;;;18.90;84.20;;;;;;10356927;28;20308;-87
2023/06/07 06:36:51;;;;;;;8.33;7.73;;;19.00;83.70;;;;;;10363836;28;20274;-86
2023/06/07 06:41:53;;;;;;;8.43;7.73;;;19.20;83.50;;;;;;10332780;28;20216;-86
2023/06/07 06:47:11;;;;;;;7.90;7.20;;;19.40;83.30;;;;;;10324832;28;20293;-87
2023/06/07 06:52:13;;;;;;;7.33;6.70;;;19.70;82.70;;;;;;10340970;28;20227;-87
2023/06/07 06:57:15;;;;;;;7.00;6.40;;;20.00;81.10;;;;;;10349563;28;20227;-86
2023/06/07 07:02:19;;;;;;;8.00;6.90;;;20.20;80.80;;;;;;10339498;28;20208;-86
2023/06/07 07:07:21;;;;;;;7.00;6.50;;;20.40;80.30;;;;;;10351851;28;20310;-86
2023/06/07 07:12:23;;;;;;;6.70;6.13;;;20.60;80.00;;;;;;10354417;28;20274;-86
2023/06/07 07:17:27;;;;;;;6.53;5.70;;;20.80;78.70;;;;;;10326582;28;20650;-83
2023/06/07 07:22:29;;;;;;;5.77;5.07;;;21.10;78.90;;;;;;10366415;28;20729;-86
2023/06/07 07:27:31;;;;;;;5.20;4.77;;;21.30;78.90;;;;;;10342294;28;20232;-87
2023/06/07 07:32:35;;;;;;;5.63;5.20;;;21.60;77.90;;;;;;10333854;28;20230;-86
2023/06/07 07:37:38;;;;;;;5.53;5.03;;;21.90;77.10;;;;;;10307920;28;20351;-87
2023/06/07 07:42:40;;;;;;;5.27;4.97;;;22.10;77.00;;;;;;10353116;28;20204;-87
2023/06/07 07:47:45;;;;;;;5.07;4.67;;;22.50;75.80;;;;;;10340384;28;20239;-86
2023/06/07 07:52:47;;;;;;;4.47;4.17;;;22.90;74.90;;;;;;10341243;28;20223;-88
2023/06/07 07:57:49;;;;;;;4.10;3.80;;;23.40;73.70;;;;;;10342039;28;20286;-86
2023/06/07 08:02:53;;;;;;;5.73;4.03;;;24.00;72.00;;;;;;10341660;28;20254;-85
2023/06/07 08:07:55;;;;;;;3.10;2.80;;;24.60;71.20;;;;;;10347294;28;20220;-86
2023/06/07 08:12:57;;;;;;;3.50;3.30;;;25.20;68.20;;;;;;10359781;28;20769;-87
2023/06/07 08:18:00;;;;;;;3.33;3.03;;;25.70;66.90;;;;;;10323241;28;20228;-87
2023/06/07 08:23:03;;;;;;;4.27;3.97;;;26.20;65.70;;;;;;10356479;28;20211;-87
2023/06/07 08:28:05;;;;;;;4.40;4.00;;;26.70;65.30;;;;;;10362052;28;20250;-86
2023/06/07 08:33:09;;;;;;;4.30;4.00;;;27.10;63.90;;;;;;10342813;28;20223;-87
2023/06/07 08:38:11;;;;;;;3.00;2.80;;;27.40;63.40;;;;;;10341470;28;20652;-87
2023/06/07 08:43:13;;;;;;;3.40;3.20;;;27.80;62.00;;;;;;10307833;28;20267;-87
2023/06/07 08:48:17;;;;;;;3.10;2.90;;;28.10;61.40;;;;;;10360476;28;20242;-88
2023/06/07 08:53:27;;;;;;;2.87;2.60;;;28.40;59.80;;;;;;10362492;28;20230;-88
2023/06/07 08:58:30;;;;;;;3.10;2.90;;;28.60;58.70;;;;;;10340712;28;20240;-88
2023/06/07 09:03:33;;;;;;;6.03;3.30;;;28.90;58.30;;;;;;10334875;28;20211;-86
2023/06/07 09:08:35;;;;;;;2.90;2.70;;;29.30;57.40;;;;;;10340038;28;20228;-87
2023/06/07 09:13:38;;;;;;;3.20;3.00;;;29.50;56.10;;;;;;10318502;28;20228;-86
2023/06/07 09:18:47;;;;;;;3.33;3.13;;;29.80;56.00;;;;;;10357308;28;20254;-87
2023/06/07 09:23:49;;;;;;;3.20;2.90;;;30.10;55.70;;;;;;10324122;28;20214;-86
2023/06/07 09:28:52;;;;;;;3.67;3.10;;;30.10;55.50;;;;;;10326872;28;20275;-87
2023/06/07 09:33:55;;;;;;;2.80;2.60;;;30.40;55.00;;;;;;10344803;28;20315;-87
2023/06/07 09:38:58;;;;;;;2.90;2.70;;;31.00;53.20;;;;;;10364825;28;20234;-86
2023/06/07 09:44:00;;;;;;;2.80;2.60;;;31.60;52.20;;;;;;10344018;28;20195;-87
2023/06/07 09:49:04;;;;;;;2.90;2.70;;;32.50;51.70;;;;;;10338996;28;20234;-86
2023/06/07 09:54:08;;;;;;;2.40;2.30;;;33.40;50.80;;;;;;10330700;28;20258;-86
2023/06/07 09:59:12;;;;;;;2.50;2.40;;;33.00;50.30;;;;;;10362165;28;20589;-88
2023/06/07 10:04:16;;;;;;;2.50;2.40;;;33.60;51.10;;;;;;10370254;28;20210;-87
2023/06/07 10:09:20;;;;;;;2.10;2.00;;;34.70;49.50;;;;;;10366279;28;20314;-87
2023/06/07 10:14:28;;;;;;;2.25;2.10;;;36.00;48.10;;;;;;10352551;28;20230;-88
2023/06/07 10:19:37;;;;;;;2.20;2.10;;;37.20;47.40;;;;;;10345122;28;20594;-87
2023/06/07 10:24:51;;;;;;;2.50;2.30;;;37.40;44.80;;;;;;10330564;28;20204;-87
2023/06/07 10:30:02;;;;;;;2.37;2.20;;;35.40;45.30;;;;;;10324320;28;20225;-88
2023/06/07 10:35:08;;;;;;;2.60;2.40;;;33.20;47.10;;;;;;10372724;28;20673;-88
2023/06/07 10:40:11;;;;;;;2.97;2.77;;;31.50;49.20;;;;;;10328356;28;20232;-87
2023/06/07 10:45:18;;;;;;;2.67;2.57;;;30.30;51.20;;;;;;10362521;28;20208;-89
2023/06/07 10:50:47;;;;;;;3.13;2.93;;;29.40;53.30;;;;;;10342701;28;20228;-86
2023/06/07 10:55:49;;;;;;;3.20;3.00;;;28.80;54.40;;;;;;10345762;28;20224;-88
2023/06/07 11:00:52;;;;;;;2.50;2.40;;;28.20;55.10;;;;;;10368459;28;20720;-89
2023/06/07 11:06:20;;;;;;;3.10;2.90;;;27.70;55.80;;;;;;10367342;28;20214;-89
2023/06/07 11:11:50;;;;;;;3.03;2.93;;;27.10;57.00;;;;;;10344909;28;20208;-84
2023/06/07 11:16:52;;;;;;;2.90;2.70;;;26.60;57.00;;;;;;10327973;28;20251;-85
2023/06/07 11:22:05;;;;;;;2.80;2.70;;;26.40;58.00;;;;;;10359467;28;20208;-83
2023/06/07 11:27:14;;;;;;;3.13;2.93;;;26.20;58.60;;;;;;10349296;28;20258;-84
2023/06/07 11:32:16;;;;;;;2.80;2.60;;;26.30;58.80;;;;;;10349826;28;20203;-85
2023/06/07 11:37:20;;;;;;;2.83;2.73;;;26.30;58.90;;;;;;10344138;28;20271;-85
2023/06/07 11:42:25;;;;;;;2.67;2.57;;;26.20;58.30;;;;;;10375082;28;20655;-85
2023/06/07 11:47:27;;;;;;;3.00;2.80;;;26.10;59.40;;;;;;10347601;28;20231;-84
2023/06/07 11:52:30;;;;;;;3.20;2.90;;;25.90;57.70;;;;;;10361787;28;20216;-85
2023/06/07 11:57:37;;;;;;;3.17;3.07;;;25.70;57.60;;;;;;10349293;28;20262;-85
2023/06/07 12:02:40;;;;;;;3.23;2.93;;;25.50;58.90;;;;;;10371761;28;20200;-85
2023/06/07 12:07:43;;;;;;;3.03;2.83;;;25.30;59.70;;;;;;10398710;28;20246;-83
2023/06/07 12:12:45;;;;;;;3.00;2.77;;;25.10;59.70;;;;;;10367037;28;20211;-85
2023/06/07 12:17:48;;;;;;;2.70;2.57;;;25.10;59.90;;;;;;10369122;28;20284;-85
2023/06/07 12:22:52;;;;;;;2.60;2.50;;;25.10;59.20;;;;;;10357856;28;20330;-84
2023/06/07 12:27:54;;;;;;;2.70;2.60;;;25.20;60.60;;;;;;10369155;28;20231;-85
2023/06/07 12:33:00;;;;;;;3.50;3.07;;;25.20;60.90;;;;;;10363699;28;20641;-85
2023/06/07 12:38:04;;;;;;;2.90;2.70;;;25.20;61.00;;;;;;10377395;28;20258;-85
2023/06/07 12:43:06;;;;;;;2.87;2.77;;;25.10;60.80;;;;;;10336608;28;20616;-85
2023/06/07 12:48:08;;;;;;;3.20;3.07;;;25.10;58.90;;;;;;10374340;28;20330;-82
2023/06/07 12:53:11;;;;;;;2.40;2.30;;;24.80;59.20;;;;;;10356175;28;20566;-85
2023/06/07 12:58:14;;;;;;;2.60;2.50;;;24.80;60.00;;;;;;10346200;28;20282;-85
2023/06/07 13:03:17;;;;;;;2.73;2.53;;;24.80;61.10;;;;;;10361330;28;20323;-84
2023/06/07 13:08:22;;;;;;;3.30;3.03;;;24.90;59.80;;;;;;10321446;28;20222;-85
2023/06/07 13:13:24;;;;;;;2.83;2.63;;;25.10;59.40;;;;;;10357131;28;20220;-85
2023/06/07 13:18:27;;;;;;;3.07;2.97;;;25.10;59.20;;;;;;10375586;28;20227;-86
2023/06/07 13:23:31;;;;;;;2.80;2.60;;;25.10;58.90;;;;;;10346818;28;20313;-85
2023/06/07 13:28:33;;;;;;;2.43;2.33;;;25.10;59.20;;;;;;10311945;28;20275;-85
2023/06/07 13:33:35;;;;;;;2.20;2.10;;;25.00;59.20;;;;;;10357828;28;20690;-85
2023/06/07 13:38:38;;;;;;;2.40;2.30;;;25.00;58.60;;;;;;10360833;28;20231;-85
2023/06/07 13:43:41;;;;;;;2.10;2.00;;;25.00;58.60;;;;;;10374863;28;20258;-85
2023/06/07 13:48:43;;;;;;;2.30;2.20;;;24.90;58.20;;;;;;10380901;28;20235;-85
2023/06/07 13:53:46;;;;;;;2.80;2.60;;;24.80;58.20;;;;;;10369443;28;20234;-85
2023/06/07 13:58:49;;;;;;;2.00;1.90;;;24.80;58.70;;;;;;10359590;28;20247;-84
2023/06/07 14:03:51;;;;;;;2.67;2.50;;;24.80;58.80;;;;;;10361889;28;20235;-85
2023/06/07 14:08:55;;;;;;;2.47;2.37;;;24.70;58.40;;;;;;10379951;28;20223;-85
2023/06/07 14:13:57;;;;;;;2.73;2.53;;;24.70;58.80;;;;;;10358665;28;20227;-85
2023/06/07 14:18:59;;;;;;;2.70;2.60;;;24.70;58.50;;;;;;10346297;28;20258;-85
2023/06/07 14:24:02;;;;;;;2.37;2.27;;;24.70;59.10;;;;;;10358471;28;20265;-84
2023/06/07 14:29:04;;;;;;;2.87;2.70;;;24.80;58.20;;;;;;10368186;28;20278;-85
2023/06/07 14:34:06;;;;;;;2.67;2.47;;;24.80;57.30;;;;;;10378774;28;20309;-85
2023/06/07 14:39:10;;;;;;;2.80;2.60;;;24.70;58.10;;;;;;10362516;28;20224;-85
2023/06/07 14:44:12;;;;;;;2.77;2.67;;;24.80;58.20;;;;;;10348167;28;20206;-85
2023/06/07 14:49:15;;;;;;;2.27;2.17;;;24.90;58.60;;;;;;10367603;28;20223;-85
2023/06/07 14:54:18;;;;;;;2.80;2.70;;;25.00;57.90;;;;;;10349674;28;20219;-85
2023/06/07 14:59:20;;;;;;;2.97;2.77;;;25.10;57.10;;;;;;10387891;28;20231;-85
2023/06/07 15:04:22;;;;;;;2.83;2.60;;;25.10;57.50;;;;;;10377508;28;20297;-85
2023/06/07 15:09:26;;;;;;;3.00;2.80;;;25.00;57.80;;;;;;10354557;28;20231;-85
2023/06/07 15:14:28;;;;;;;2.63;2.50;;;24.90;58.40;;;;;;10349597;28;20215;-85
2023/06/07 15:19:30;;;;;;;2.67;2.57;;;24.90;57.50;;;;;;10372072;28;20326;-85
2023/06/07 15:24:34;;;;;;;3.13;2.80;;;24.90;57.80;;;;;;10315832;28;20204;-85
2023/06/07 15:29:36;;;;;;;2.77;2.57;;;24.90;57.50;;;;;;10353560;28;20310;-85
2023/06/07 15:34:43;;;;;;;2.90;2.70;;;24.90;57.50;;;;;;10388767;28;20222;-85
2023/06/07 15:39:47;;;;;;;2.90;2.70;;;24.80;58.10;;;;;;10354423;28;20231;-84
2023/06/07 15:44:49;;;;;;;2.40;2.30;;;24.80;57.40;;;;;;10345714;28;20210;-84
2023/06/07 15:49:51;;;;;;;2.60;2.40;;;24.80;58.40;;;;;;10355167;28;20232;-84
2023/06/07 15:54:54;;;;;;;3.10;2.90;;;24.70;58.20;;;;;;10344438;28;20308;-84
2023/06/07 15:59:57;;;;;;;2.97;2.77;;;24.70;58.70;;;;;;10369113;28;20220;-83
2023/06/07 16:04:59;;;;;;;3.00;2.80;;;24.70;58.20;;;;;;10364087;28;20202;-84
2023/06/07 16:10:02;;;;;;;3.20;3.00;;;24.60;59.00;;;;;;10358049;28;20640;-84
2023/06/07 16:15:05;;;;;;;2.90;2.70;;;24.60;57.80;;;;;;10366980;28;20258;-85
2023/06/07 16:20:09;;;;;;;3.70;3.50;;;24.60;58.00;;;;;;10341897;28;20710;-84
2023/06/07 16:25:12;;;;;;;3.20;3.00;;;24.60;57.70;;;;;;10330764;28;20299;-84
2023/06/07 16:30:14;;;;;;;3.20;3.00;;;24.60;57.80;;;;;;10367232;28;20483;-84
2023/06/07 16:35:16;;;;;;;3.30;3.10;;;24.60;57.70;;;;;;10377434;28;20220;-83
2023/06/07 16:40:20;;;;;;;3.43;3.23;;;24.60;56.90;;;;;;10357039;28;20230;-85
2023/06/07 16:45:22;;;;;;;4.60;2.83;;;24.60;57.10;;;;;;10338400;28;20206;-84
2023/06/07 16:50:24;;;;;;;2.90;2.70;;;24.60;57.10;;;;;;10357917;28;20223;-84
2023/06/07 16:55:34;;;;;;;3.00;2.80;;;24.60;57.30;;;;;;10605802;27;20913;-83
2023/06/07 17:00:36;;;;;;;3.03;2.73;;;24.50;58.20;;;;;;10595325;27;20260;-83
2023/06/07 17:05:38;;;;;;;2.70;2.60;;;24.40;58.00;;;;;;10594780;27;20191;-83
2023/06/07 17:10:42;;;;;;;2.80;2.70;;;24.40;58.00;;;;;;10612572;27;20306;-83
2023/06/07 17:15:44;;;;;;;3.47;3.20;;;24.40;59.30;;;;;;10594374;27;20248;-82
2023/06/07 17:20:46;;;;;;;2.57;2.47;;;24.30;57.70;;;;;;10624351;27;20669;-83
2023/06/07 17:25:49;;;;;;;3.33;3.13;;;24.30;57.50;;;;;;10630556;27;20196;-82
2023/06/07 17:30:52;;;;;;;3.90;3.60;;;24.30;57.80;;;;;;10612278;27;20191;-83
2023/06/07 17:35:54;;;;;;;2.90;2.70;;;24.20;57.00;;;;;;10611596;27;20270;-82
2023/06/07 17:40:57;;;;;;;2.90;2.70;;;24.20;56.30;;;;;;10612879;27;20205;-83
2023/06/07 17:45:59;;;;;;;3.63;3.33;;;24.20;57.00;;;;;;10600227;27;20203;-86
2023/06/07 17:51:05;;;;;;;3.50;3.30;;;24.10;56.90;;;;;;10634445;27;20297;-86
2023/06/07 17:56:09;;;;;;;3.50;3.20;;;24.10;57.40;;;;;;10617928;27;20211;-82
2023/06/07 18:01:11;;;;;;;2.40;2.30;;;24.00;56.90;;;;;;10597781;27;20195;-82
2023/06/07 18:06:13;;;;;;;2.80;2.60;;;24.00;56.50;;;;;;10570726;28;20212;-83
2023/06/07 18:11:17;;;;;;;2.70;2.60;;;23.90;57.60;;;;;;10565289;28;20216;-83
2023/06/07 18:16:19;;;;;;;3.30;3.10;;;23.90;56.40;;;;;;10565662;28;20277;-84
2023/06/07 18:21:21;;;;;;;3.17;2.97;;;23.80;56.00;;;;;;10594542;27;20535;-84
2023/06/07 18:26:25;;;;;;;3.17;2.97;;;23.80;57.40;;;;;;10586905;27;20269;-83
2023/06/07 18:31:27;;;;;;;3.03;2.83;;;23.70;57.40;;;;;;10582903;28;20215;-82
2023/06/07 18:36:29;;;;;;;3.53;3.33;;;23.60;58.70;;;;;;10565695;28;20220;-82
2023/06/07 18:41:32;;;;;;;3.93;3.67;;;23.60;58.40;;;;;;10566527;28;20196;-83
2023/06/07 18:46:34;;;;;;;3.63;3.27;;;23.50;58.30;;;;;;10583938;28;20216;-83
2023/06/07 18:51:37;;;;;;;3.20;3.00;;;23.50;57.70;;;;;;10600449;27;20223;-83
2023/06/07 18:56:40;;;;;;;3.60;3.03;;;23.40;58.20;;;;;;10628618;27;20249;-83
2023/06/07 19:01:43;;;;;;;3.40;3.10;;;23.40;59.30;;;;;;10592229;28;20184;-83
2023/06/07 19:06:46;;;;;;;2.97;2.67;;;23.30;59.80;;;;;;10569468;28;20223;-84
2023/06/07 19:11:49;;;;;;;3.97;3.63;;;23.30;59.00;;;;;;10590216;28;20216;-83
2023/06/07 19:16:51;;;;;;;3.33;3.13;;;23.20;59.10;;;;;;10572546;28;20222;-83
2023/06/07 19:21:53;;;;;;;3.20;3.00;;;23.10;59.70;;;;;;10600271;27;20635;-82
2023/06/07 19:26:57;;;;;;;3.90;3.60;;;22.90;60.10;;;;;;10606221;28;20219;-83
2023/06/07 19:31:59;;;;;;;3.30;3.10;;;22.80;60.90;;;;;;10580937;28;20283;-81
2023/06/07 19:37:01;;;;;;;4.50;3.63;;;22.60;60.80;;;;;;10598247;28;20218;-82
2023/06/07 19:42:08;;;;;;;3.80;3.50;;;22.50;61.60;;;;;;10585952;28;20188;-81
2023/06/07 19:47:10;;;;;;;3.77;3.50;;;22.30;61.90;;;;;;10566617;28;20264;-82
2023/06/07 19:52:12;;;;;;;3.77;3.47;;;22.20;61.50;;;;;;10578441;27;20234;-83
2023/06/07 19:57:15;;;;;;;3.70;3.13;;;22.10;62.70;;;;;;10611097;27;20284;-83
2023/06/07 20:02:17;;;;;;;3.20;3.00;;;22.00;62.40;;;;;;10564915;28;20229;-82
2023/06/07 20:07:19;;;;;;;3.50;3.30;;;21.90;62.60;;;;;;10586681;28;20720;-82
2023/06/07 20:12:23;;;;;;;3.43;3.23;;;21.80;62.70;;;;;;10582867;28;20303;-83
2023/06/07 20:17:26;;;;;;;4.20;3.90;;;21.70;63.30;;;;;;10583271;28;20268;-83
2023/06/07 20:22:31;;;;;;;3.80;3.50;;;21.60;63.70;;;;;;10564680;28;20260;-83
2023/06/07 20:27:35;;;;;;;3.43;3.23;;;21.60;64.00;;;;;;10584915;28;20215;-83
2023/06/07 20:32:37;;;;;;;3.20;3.00;;;21.50;64.30;;;;;;10606438;28;20243;-83
2023/06/07 20:37:39;;;;;;;3.40;3.23;;;21.40;64.20;;;;;;10565258;28;20203;-83
2023/06/07 20:42:43;;;;;;;3.20;3.00;;;21.30;64.70;;;;;;10583308;28;20202;-82
2023/06/07 20:47:45;;;;;;;4.83;2.83;;;21.30;65.70;;;;;;10566275;28;20269;-81
2023/06/07 20:52:47;;;;;;;3.70;3.40;;;21.20;65.50;;;;;;10566641;28;20598;-82
2023/06/07 20:57:50;;;;;;;3.50;3.20;;;21.20;65.90;;;;;;10585368;28;20231;-83
2023/06/07 21:02:52;;;;;;;3.40;3.20;;;21.10;65.80;;;;;;10550548;28;20202;-84
2023/06/07 21:07:55;;;;;;;3.10;2.90;;;21.10;66.90;;;;;;10585276;28;20219;-81
2023/06/07 21:12:58;;;;;;;4.00;3.63;;;21.00;66.60;;;;;;10587836;28;20216;-81
2023/06/07 21:18:00;;;;;;;3.40;3.07;;;21.00;67.30;;;;;;10591135;28;20215;-81
2023/06/07 21:23:02;;;;;;;3.60;3.40;;;21.00;66.90;;;;;;10619875;28;20196;-82
2023/06/07 21:28:06;;;;;;;9.83;3.50;;;21.00;66.00;;;;;;10603054;28;20215;-82
2023/06/07 21:33:08;;;;;;;3.47;3.27;;;21.00;67.00;;;;;;10585052;28;20215;-83
2023/06/07 21:38:10;;;;;;;3.13;2.93;;;21.10;67.20;;;;;;10585383;28;20212;-84
2023/06/07 21:43:14;;;;;;;2.80;2.60;;;21.20;67.60;;;;;;10574375;28;20286;-82
2023/06/07 21:48:16;;;;;;;3.17;3.07;;;21.20;68.30;;;;;;10597539;28;20215;-81
2023/06/07 21:53:18;;;;;;;3.30;3.10;;;21.30;68.70;;;;;;10615207;27;20751;-83
2023/06/07 21:58:21;;;;;;;3.10;2.90;;;21.30;68.50;;;;;;10572141;27;20251;-82
2023/06/07 22:03:24;;;;;;;3.67;3.37;;;21.40;68.00;;;;;;10591906;28;20188;-82
2023/06/07 22:08:26;;;;;;;3.00;2.80;;;21.40;67.90;;;;;;10589883;28;20212;-84
2023/06/07 22:13:29;;;;;;;4.00;3.40;;;21.40;68.50;;;;;;10588106;28;20627;-83
2023/06/07 22:18:35;;;;;;;2.70;2.50;;;21.30;68.70;;;;;;10568093;28;20635;-82
2023/06/07 22:23:41;;;;;;;3.30;3.00;;;21.30;69.30;;;;;;10597672;27;20265;-84
2023/06/07 22:28:44;;;;;;;2.90;2.80;;;21.30;69.40;;;;;;10568015;28;20233;-83
2023/06/07 22:33:50;;;;;;;3.20;3.00;;;21.20;70.50;;;;;;10585992;28;20776;-82
2023/06/07 22:38:52;;;;;;;3.10;2.90;;;21.20;71.50;;;;;;10589627;28;20224;-83
2023/06/07 22:43:57;;;;;;;3.87;3.30;;;21.10;71.90;;;;;;10589569;28;20216;-83
2023/06/07 22:49:00;;;;;;;3.30;3.00;;;21.00;71.70;;;;;;10588789;28;20212;-84
2023/06/07 22:54:03;;;;;;;3.10;2.90;;;20.90;72.40;;;;;;10607453;27;20315;-83
2023/06/07 22:59:06;;;;;;;3.40;3.20;;;20.80;72.60;;;;;;10591106;28;20223;-83
2023/06/07 23:04:09;;;;;;;3.27;3.17;;;20.70;71.80;;;;;;10573557;28;20279;-83
2023/06/07 23:09:11;;;;;;;3.30;3.00;;;20.60;71.60;;;;;;10573581;28;20215;-84
2023/06/07 23:14:16;;;;;;;4.93;3.10;;;20.50;72.30;;;;;;10573553;28;20286;-83
2023/06/07 23:19:19;;;;;;;3.60;3.40;;;20.50;73.20;;;;;;10592954;28;20225;-83
2023/06/07 23:24:21;;;;;;;3.00;2.90;;;20.40;74.10;;;;;;10620551;27;20222;-84
2023/06/07 23:29:25;;;;;;;4.13;3.83;;;20.40;72.30;;;;;;10591618;28;20207;-83
2023/06/07 23:34:29;;;;;;;3.77;3.57;;;20.30;72.50;;;;;;10570131;28;20222;-83
2023/06/07 23:39:31;;;;;;;3.70;3.40;;;20.20;72.80;;;;;;10589218;28;20277;-84
2023/06/07 23:44:34;;;;;;;3.30;3.10;;;20.10;74.50;;;;;;10590533;28;20252;-83
2023/06/07 23:49:37;;;;;;;3.67;3.40;;;20.10;75.40;;;;;;10572315;28;20629;-83
2023/06/07 23:54:39;;;;;;;3.83;3.60;;;20.00;75.80;;;;;;10626377;27;20223;-83
2023/06/07 23:59:42;;;;;;;2.67;2.50;;;20.00;74.50;;;;;;10578030;27;20790;-84
